National Weather Service Raw Text Product

Displaying AFOS PIL: TAFALO Received: 2017-10-13 02:59 UTC


334 
FTUS43 KDMX 130259 AAA
TAFALO
TAF AMD
KALO 130259Z 1303/1324 15008KT P6SM BKN018
     FM131000 16005KT 3SM BR BKN009
     FM131100 VRB03KT 1SM BR BKN005
     FM131400 VRB04KT 3SM BR BKN005
     FM131500 03005KT 5SM BR BKN010
     FM131700 03004KT P6SM BKN021
     FM132000 04006KT P6SM VCSH OVC021=